Time;durP1;ratioP1;P1;durP2;ratioP2;P2;SDS_P1;SDS_P2;PMS_P1;PMS_P2;Temp;Humidity;BMP_temperature;BMP_pressure;BME280_temperature;BME280_humidity;BME280_pressure;Samples;Min_cycle;Max_cycle;Signal;HPM_P1;HPM_P2
2023/09/09 00:01:24;;;;;;;9.82;8.85;;;25.20;59.70;26.80;101459.00;;;;5113850;28;20202;-89
2023/09/09 00:03:51;;;;;;;8.80;8.00;;;25.20;59.70;26.80;101473.00;;;;5099835;28;20202;-89
2023/09/09 00:06:19;;;;;;;8.73;7.93;;;25.10;59.70;26.70;101468.00;;;;5093985;28;20943;-90
2023/09/09 00:08:46;;;;;;;9.15;8.25;;;25.10;59.70;26.70;101466.00;;;;5113052;28;20585;-89
2023/09/09 00:11:15;;;;;;;10.07;9.15;;;25.10;59.70;26.70;101469.00;;;;5092854;28;20640;-90
2023/09/09 00:13:45;;;;;;;10.57;8.60;;;25.00;59.80;26.60;101468.00;;;;5105544;28;20208;-89
2023/09/09 00:16:14;;;;;;;9.50;8.55;;;25.00;59.80;26.60;101474.00;;;;5113705;28;20687;-90
2023/09/09 00:18:50;;;;;;;9.60;8.65;;;25.00;59.80;26.50;101471.00;;;;5094065;28;20213;-89
2023/09/09 00:21:25;;;;;;;9.75;8.85;;;24.90;60.90;26.50;101474.00;;;;5113276;28;20203;-90
2023/09/09 00:23:52;;;;;;;9.45;8.50;;;24.90;60.20;26.50;101473.00;;;;5112330;28;20193;-89
2023/09/09 00:26:28;;;;;;;9.73;8.82;;;24.90;59.90;26.40;101471.00;;;;5112741;28;20201;-90
2023/09/09 00:28:57;;;;;;;9.80;8.27;;;24.90;60.30;26.50;101463.00;;;;5113526;28;20217;-90
2023/09/09 00:31:25;;;;;;;10.43;9.40;;;24.80;60.00;26.50;101461.00;;;;5112449;28;20693;-89
2023/09/09 00:33:59;;;;;;;9.90;8.93;;;24.80;60.00;26.40;101468.00;;;;5112103;28;20201;-91
2023/09/09 00:36:28;;;;;;;10.02;8.68;;;24.70;60.20;26.40;101470.00;;;;5111211;28;20322;-90
2023/09/09 00:38:55;;;;;;;9.65;8.65;;;24.70;60.10;26.40;101465.00;;;;5112436;28;20213;-90
2023/09/09 00:41:23;;;;;;;10.00;8.95;;;24.70;60.00;26.40;101468.00;;;;5109669;28;20206;-90
2023/09/09 00:43:55;;;;;;;9.48;8.57;;;24.70;60.10;26.30;101454.00;;;;5104104;28;20209;-90
2023/09/09 00:46:26;;;;;;;11.23;8.88;;;24.60;60.30;26.30;101453.00;;;;5111979;28;20576;-90
2023/09/09 00:48:55;;;;;;;8.80;7.85;;;24.60;60.20;26.30;101451.00;;;;5112251;28;20189;-90
2023/09/09 00:51:23;;;;;;;9.57;8.68;;;24.60;60.20;26.20;101448.00;;;;5099860;28;20217;-90
2023/09/09 00:53:53;;;;;;;10.52;8.50;;;24.60;60.30;26.20;101446.00;;;;5097520;28;20186;-90
2023/09/09 00:56:21;;;;;;;10.15;9.15;;;24.50;60.30;26.20;101443.00;;;;5112924;28;20217;-90
2023/09/09 00:58:48;;;;;;;10.95;9.18;;;24.50;60.30;26.20;101448.00;;;;5113091;28;20228;-91
2023/09/09 01:01:17;;;;;;;9.73;8.75;;;24.50;60.30;26.20;101458.00;;;;5111315;28;20301;-90
2023/09/09 01:03:45;;;;;;;10.60;9.55;;;24.50;60.40;26.10;101460.00;;;;5112485;28;20286;-90
2023/09/09 01:06:14;;;;;;;9.57;8.68;;;24.50;60.50;26.10;101448.00;;;;5113028;28;20203;-91
2023/09/09 01:08:43;;;;;;;10.60;9.50;;;24.40;60.40;26.10;101459.00;;;;5112902;28;20248;-90
2023/09/09 01:11:15;;;;;;;10.48;9.27;;;24.40;60.40;26.00;101451.00;;;;5112932;28;20212;-90
2023/09/09 01:13:51;;;;;;;10.27;9.27;;;24.40;60.60;25.90;101450.00;;;;5111443;28;20194;-91
2023/09/09 01:16:33;;;;;;;12.38;8.73;;;24.40;60.80;25.90;101460.00;;;;5113217;28;20221;-91
2023/09/09 01:19:01;;;;;;;11.98;8.85;;;24.30;60.80;26.00;101452.00;;;;5113653;28;20197;-90
2023/09/09 01:21:32;;;;;;;9.80;8.88;;;24.30;60.40;25.90;101450.00;;;;5111384;28;20193;-90
2023/09/09 01:24:02;;;;;;;9.75;8.75;;;24.30;60.50;25.90;101448.00;;;;5110096;28;20201;-89
2023/09/09 01:26:30;;;;;;;9.98;8.90;;;24.20;60.40;25.90;101450.00;;;;5112383;28;20368;-90
2023/09/09 01:28:57;;;;;;;9.32;8.43;;;24.20;60.40;25.90;101442.00;;;;5112737;28;20201;-90
2023/09/09 01:31:40;;;;;;;10.25;9.07;;;24.20;60.40;25.70;101448.00;;;;5111359;28;20197;-90
2023/09/09 01:34:07;;;;;;;9.70;8.73;;;24.20;61.00;25.80;101452.00;;;;5099569;28;20280;-89
2023/09/09 01:36:34;;;;;;;10.05;8.90;;;24.10;60.40;25.80;101460.00;;;;5111404;28;20225;-90
2023/09/09 01:39:05;;;;;;;9.02;8.13;;;24.20;60.60;25.70;101452.00;;;;5112056;28;20201;-89
2023/09/09 01:41:32;;;;;;;9.27;8.38;;;24.10;60.70;25.80;101465.00;;;;5110297;28;20271;-90
2023/09/09 01:43:59;;;;;;;9.40;8.50;;;24.00;60.50;25.70;101458.00;;;;5111003;28;20204;-87
2023/09/09 01:46:27;;;;;;;9.07;8.20;;;24.10;60.60;25.70;101452.00;;;;5112017;28;20644;-89
2023/09/09 01:48:57;;;;;;;9.48;8.57;;;24.00;61.30;25.70;101449.00;;;;5109841;28;20662;-90
2023/09/09 01:51:26;;;;;;;10.95;9.55;;;24.00;60.60;25.70;101459.00;;;;5091564;28;20190;-90
2023/09/09 01:53:54;;;;;;;10.75;9.52;;;24.00;60.60;25.60;101459.00;;;;5092548;28;20199;-90
2023/09/09 01:56:30;;;;;;;10.75;9.65;;;23.90;60.60;25.50;101450.00;;;;5092069;28;20222;-90
2023/09/09 01:58:57;;;;;;;10.43;9.32;;;23.90;60.90;25.60;101449.00;;;;5097746;28;20227;-91
2023/09/09 02:01:26;;;;;;;10.65;8.90;;;23.90;60.60;25.50;101448.00;;;;5112071;28;20214;-89
2023/09/09 02:03:56;;;;;;;10.75;9.57;;;23.90;60.70;25.50;101447.00;;;;5115916;28;20658;-91
2023/09/09 02:06:24;;;;;;;9.63;8.63;;;23.80;60.80;25.50;101445.00;;;;5116709;28;20192;-91
2023/09/09 02:08:55;;;;;;;10.82;9.75;;;23.80;60.70;25.50;101443.00;;;;5117651;28;20230;-90
2023/09/09 02:11:26;;;;;;;11.95;10.13;;;23.80;60.80;25.40;101443.00;;;;5115487;28;20208;-90
2023/09/09 02:13:55;;;;;;;11.45;9.55;;;23.80;60.80;25.40;101444.00;;;;5116015;28;20201;-91
2023/09/09 02:16:23;;;;;;;13.30;11.20;;;23.70;60.70;25.40;101443.00;;;;5103403;28;20211;-89
2023/09/09 02:19:02;;;;;;;12.45;11.10;;;23.70;60.70;25.30;101446.00;;;;5095128;28;20212;-89
2023/09/09 02:21:32;;;;;;;12.00;10.63;;;23.70;61.10;25.30;101442.00;;;;5101035;28;20209;-91
2023/09/09 02:24:01;;;;;;;13.68;11.98;;;23.70;60.90;25.30;101440.00;;;;5116868;27;20215;-90
2023/09/09 02:26:28;;;;;;;14.02;11.75;;;23.60;60.80;25.30;101442.00;;;;5115823;28;21347;-91
2023/09/09 02:28:57;;;;;;;14.93;12.68;;;23.60;60.80;25.30;101443.00;;;;5116101;28;20197;-90
2023/09/09 02:31:29;;;;;;;15.50;13.48;;;23.60;60.80;25.20;101436.00;;;;5115864;28;20197;-89
2023/09/09 02:34:00;;;;;;;15.85;13.73;;;23.60;61.00;25.20;101442.00;;;;5104496;28;20201;-89
2023/09/09 02:36:28;;;;;;;17.35;14.57;;;23.50;60.90;25.20;101438.00;;;;5098262;28;20201;-89
2023/09/09 02:38:59;;;;;;;18.00;15.00;;;23.50;60.80;25.10;101445.00;;;;5116028;28;20980;-89
2023/09/09 02:41:27;;;;;;;19.75;16.38;;;23.50;60.90;25.10;101435.00;;;;5114364;28;20300;-90
2023/09/09 02:43:55;;;;;;;20.90;16.65;;;23.40;60.80;25.10;101436.00;;;;5115383;28;20554;-88
2023/09/09 02:46:29;;;;;;;20.35;16.80;;;23.40;60.80;25.00;101436.00;;;;5115360;27;20204;-90
2023/09/09 02:48:58;;;;;;;23.30;17.35;;;23.40;60.90;25.10;101429.00;;;;5115370;28;20272;-89
2023/09/09 02:51:27;;;;;;;17.45;15.23;;;23.40;60.90;25.00;101429.00;;;;5114837;28;20284;-88
2023/09/09 02:53:54;;;;;;;18.65;14.73;;;23.30;60.80;25.00;101433.00;;;;5114405;28;20682;-89
2023/09/09 02:56:24;;;;;;;22.27;15.90;;;23.30;60.80;24.90;101423.00;;;;5113929;28;20307;-90
2023/09/09 02:58:51;;;;;;;15.35;13.75;;;23.30;61.10;25.00;101438.00;;;;5113934;28;20229;-90
2023/09/09 03:01:20;;;;;;;15.57;13.82;;;23.20;60.80;24.90;101440.00;;;;5114532;28;20265;-90
2023/09/09 03:04:06;;;;;;;15.63;13.82;;;23.20;60.80;24.80;101430.00;;;;5112276;28;20603;-90
2023/09/09 03:06:34;;;;;;;16.02;13.88;;;23.20;61.20;24.90;101429.00;;;;5109065;28;20214;-90
2023/09/09 03:09:04;;;;;;;16.70;14.18;;;23.20;60.80;24.80;101427.00;;;;5102949;28;20209;-90
2023/09/09 03:11:32;;;;;;;17.00;14.18;;;23.10;60.80;24.80;101430.00;;;;5114833;28;20310;-90
2023/09/09 03:13:59;;;;;;;16.77;14.07;;;23.10;60.90;24.80;101437.00;;;;5110600;28;20202;-90
2023/09/09 03:16:34;;;;;;;21.67;15.82;;;23.10;60.90;24.70;101431.00;;;;5115148;28;20673;-89
2023/09/09 03:19:01;;;;;;;17.45;13.82;;;23.00;61.10;24.70;101437.00;;;;5094483;28;20212;-90
2023/09/09 03:21:36;;;;;;;16.25;13.38;;;23.00;61.00;24.60;101433.00;;;;5106040;28;20202;-90
2023/09/09 03:24:05;;;;;;;16.48;14.20;;;23.00;61.20;24.70;101441.00;;;;5114070;28;20208;-90
2023/09/09 03:26:32;;;;;;;16.92;13.73;;;23.00;61.10;24.70;101438.00;;;;5114170;28;20585;-89
2023/09/09 03:29:01;;;;;;;16.40;13.50;;;22.90;61.00;24.60;101439.00;;;;5113663;28;20199;-88
2023/09/09 03:31:29;;;;;;;15.02;12.30;;;22.90;61.20;24.60;101433.00;;;;5110716;28;20674;-90
2023/09/09 03:33:59;;;;;;;18.65;13.55;;;22.90;61.20;24.60;101431.00;;;;5113708;28;20200;-90
2023/09/09 03:36:26;;;;;;;35.67;19.27;;;22.90;61.30;24.60;101429.00;;;;5096530;28;20205;-88
2023/09/09 03:38:55;;;;;;;28.23;20.30;;;22.80;61.20;24.60;101425.00;;;;5094438;28;20707;-89
2023/09/09 03:41:23;;;;;;;22.33;18.52;;;22.80;61.60;24.50;101430.00;;;;5101678;28;20213;-90
2023/09/09 03:43:57;;;;;;;28.08;17.63;;;22.80;61.70;24.50;101424.00;;;;5114235;28;20205;-90
2023/09/09 03:46:26;;;;;;;20.02;16.70;;;22.70;61.90;24.50;101430.00;;;;5113188;28;20197;-90
2023/09/09 03:48:53;;;;;;;23.90;18.35;;;22.80;61.90;24.50;101430.00;;;;5114090;28;20589;-90
2023/09/09 03:51:22;;;;;;;23.95;18.10;;;22.70;61.80;24.50;101426.00;;;;5113399;28;20186;-90
2023/09/09 03:53:53;;;;;;;22.08;18.73;;;22.70;61.90;24.50;101428.00;;;;5113839;28;20628;-90
2023/09/09 03:56:21;;;;;;;22.38;17.80;;;22.70;62.10;24.50;101432.00;;;;5110447;28;20209;-89
2023/09/09 03:58:48;;;;;;;24.92;18.77;;;22.70;62.00;24.50;101433.00;;;;5110176;28;20237;-90
2023/09/09 04:01:18;;;;;;;35.90;21.15;;;22.70;62.00;24.40;101433.00;;;;5113657;28;20189;-89
2023/09/09 04:03:53;;;;;;;26.88;20.98;;;22.70;62.10;24.40;101426.00;;;;5114023;28;20197;-90
2023/09/09 04:06:21;;;;;;;24.17;20.27;;;22.70;62.50;24.40;101428.00;;;;5092811;28;20280;-90
2023/09/09 04:08:55;;;;;;;25.73;20.60;;;22.70;62.20;24.40;101431.00;;;;5099870;28;20218;-89
2023/09/09 04:11:26;;;;;;;24.35;19.38;;;22.70;62.30;24.40;101435.00;;;;5114132;28;20558;-90
2023/09/09 04:14:00;;;;;;;27.75;21.10;;;22.70;62.40;24.30;101440.00;;;;5114084;28;20407;-90
2023/09/09 04:16:34;;;;;;;26.55;20.75;;;22.70;62.60;24.40;101430.00;;;;5114183;28;20237;-89
2023/09/09 04:19:03;;;;;;;32.65;22.40;;;22.70;62.70;24.40;101440.00;;;;5113163;28;20232;-89
2023/09/09 04:21:40;;;;;;;30.38;22.55;;;22.70;62.50;24.30;101446.00;;;;5113396;28;20197;-89
2023/09/09 04:24:08;;;;;;;27.35;22.52;;;22.70;63.50;24.40;101443.00;;;;5120702;27;20207;-90
2023/09/09 04:26:35;;;;;;;29.98;21.60;;;22.70;62.60;24.40;101444.00;;;;5098999;28;20205;-88
2023/09/09 04:29:11;;;;;;;29.95;22.95;;;22.70;62.50;24.30;101442.00;;;;5112847;28;20200;-89
2023/09/09 04:31:40;;;;;;;27.63;23.17;;;22.70;62.90;24.40;101450.00;;;;5113267;28;20199;-90
2023/09/09 04:34:08;;;;;;;25.90;21.88;;;22.70;62.60;24.40;101441.00;;;;5105827;28;20199;-90
2023/09/09 04:36:38;;;;;;;25.90;21.40;;;22.60;63.20;24.30;101451.00;;;;5099062;28;20193;-91
2023/09/09 04:39:15;;;;;;;27.90;21.90;;;22.70;62.70;24.20;101453.00;;;;5113919;28;20226;-90
2023/09/09 04:41:44;;;;;;;28.63;21.13;;;22.60;62.80;24.30;101446.00;;;;5110628;28;20964;-91
2023/09/09 04:44:21;;;;;;;23.45;19.95;;;22.60;62.50;24.20;101460.00;;;;5104840;28;20204;-91
2023/09/09 04:46:50;;;;;;;24.00;19.55;;;22.60;62.70;24.30;101463.00;;;;5113599;28;20197;-90
2023/09/09 04:49:22;;;;;;;22.67;19.10;;;22.60;62.50;24.20;101457.00;;;;5112741;28;20205;-90
2023/09/09 04:51:52;;;;;;;22.83;18.33;;;22.60;62.50;24.20;101457.00;;;;5112972;28;20647;-89
2023/09/09 04:54:25;;;;;;;36.10;18.23;;;22.60;62.50;24.20;101466.00;;;;5112942;28;20197;-90
2023/09/09 04:56:53;;;;;;;32.72;18.92;;;22.50;62.40;24.20;101463.00;;;;5111134;28;20205;-89
2023/09/09 04:59:20;;;;;;;39.50;19.27;;;22.50;62.30;24.20;101463.00;;;;5110456;28;20229;-89
2023/09/09 05:01:48;;;;;;;20.05;18.02;;;22.50;62.30;24.20;101458.00;;;;5105627;28;20189;-90
2023/09/09 05:04:16;;;;;;;26.00;17.42;;;22.50;62.40;24.20;101465.00;;;;5097507;28;20186;-89
2023/09/09 05:06:44;;;;;;;40.67;19.63;;;22.50;62.40;24.20;101468.00;;;;5109949;28;20670;-89
2023/09/09 05:09:13;;;;;;;25.52;18.10;;;22.40;62.20;24.10;101459.00;;;;5111118;28;20579;-89
2023/09/09 05:11:40;;;;;;;21.95;16.95;;;22.40;62.40;24.10;101464.00;;;;5105525;28;20240;-89
2023/09/09 05:14:07;;;;;;;20.10;18.00;;;22.40;62.40;24.10;101463.00;;;;5108772;28;20564;-87
2023/09/09 05:16:36;;;;;;;20.67;16.50;;;22.30;62.40;24.10;101473.00;;;;5110443;28;20297;-86
2023/09/09 05:19:04;;;;;;;23.70;17.33;;;22.40;62.50;24.10;101473.00;;;;5093789;28;20565;-88
2023/09/09 05:21:34;;;;;;;27.40;17.58;;;22.30;62.50;24.00;101474.00;;;;5100490;28;20197;-89
2023/09/09 05:24:01;;;;;;;27.42;18.55;;;22.30;62.70;24.10;101476.00;;;;5108305;28;20198;-85
2023/09/09 05:26:30;;;;;;;21.63;17.38;;;22.30;62.60;24.00;101477.00;;;;5107769;28;20926;-84
2023/09/09 05:29:00;;;;;;;35.40;18.80;;;22.20;62.70;24.00;101469.00;;;;5107644;28;20181;-84
2023/09/09 05:31:27;;;;;;;22.63;18.05;;;22.20;62.70;24.00;101471.00;;;;5106706;28;20193;-87
2023/09/09 05:33:54;;;;;;;20.02;17.98;;;22.20;62.70;24.00;101468.00;;;;5107360;28;20197;-85
2023/09/09 05:36:21;;;;;;;34.05;18.90;;;22.20;62.80;24.00;101474.00;;;;5108954;28;20206;-85
2023/09/09 05:38:48;;;;;;;22.40;17.85;;;22.20;62.90;24.00;101476.00;;;;5104732;28;20223;-87
2023/09/09 05:41:16;;;;;;;22.65;18.67;;;22.20;62.90;24.00;101476.00;;;;5101376;28;20564;-87
2023/09/09 05:43:44;;;;;;;26.80;17.77;;;22.20;63.00;24.00;101480.00;;;;5112984;28;20209;-85
2023/09/09 05:46:15;;;;;;;20.58;18.17;;;22.20;63.10;24.00;101489.00;;;;5109208;28;20221;-86
2023/09/09 05:48:43;;;;;;;18.92;17.10;;;22.20;63.10;24.00;101481.00;;;;5112435;28;20281;-86
2023/09/09 05:51:10;;;;;;;20.73;18.63;;;22.20;63.00;24.00;101482.00;;;;5111065;28;20193;-85
2023/09/09 05:53:37;;;;;;;21.33;19.05;;;22.20;63.00;24.00;101485.00;;;;5113013;28;20204;-85
2023/09/09 05:56:11;;;;;;;21.77;19.42;;;22.20;63.10;24.00;101494.00;;;;5101411;28;20284;-91
2023/09/09 05:58:39;;;;;;;19.15;17.17;;;22.20;63.30;24.00;101488.00;;;;5110317;28;20222;-91
2023/09/09 06:01:10;;;;;;;20.40;18.33;;;22.20;63.20;24.00;101503.00;;;;5115101;28;20228;-90
2023/09/09 06:03:37;;;;;;;19.45;17.45;;;22.20;63.30;24.00;101495.00;;;;5116984;28;20209;-88
2023/09/09 06:06:04;;;;;;;21.70;18.45;;;22.20;63.10;24.00;101495.00;;;;5110818;28;20208;-90
2023/09/09 06:08:32;;;;;;;20.52;15.82;;;22.20;63.20;24.00;101495.00;;;;5095389;28;20241;-92
2023/09/09 06:11:18;;;;;;;19.05;17.15;;;22.20;63.20;23.90;101501.00;;;;5110993;28;20211;-90
2023/09/09 06:13:59;;;;;;;18.80;16.83;;;22.20;63.60;23.90;101509.00;;;;5105117;28;20208;-92
2023/09/09 06:16:30;;;;;;;19.27;17.20;;;22.20;63.50;23.90;101505.00;;;;5115467;28;20276;-89
2023/09/09 06:19:08;;;;;;;18.02;16.15;;;22.20;63.30;23.90;101506.00;;;;5102307;28;20220;-92
2023/09/09 06:21:42;;;;;;;19.40;17.35;;;22.20;63.60;23.90;101508.00;;;;5096215;28;20309;-89
2023/09/09 06:24:13;;;;;;;21.13;17.48;;;22.20;63.50;24.00;101511.00;;;;5102834;28;20228;-88
2023/09/09 06:26:40;;;;;;;20.75;17.02;;;22.20;63.50;24.00;101513.00;;;;5099319;28;20255;-88
2023/09/09 06:29:07;;;;;;;19.80;17.70;;;22.30;63.40;24.00;101513.00;;;;5112826;28;20205;-87
2023/09/09 06:31:36;;;;;;;20.13;17.90;;;22.20;64.10;24.00;101523.00;;;;5112274;28;20197;-88
2023/09/09 06:34:04;;;;;;;19.63;17.60;;;22.30;63.60;24.10;101528.00;;;;5114718;28;20193;-85
2023/09/09 06:36:31;;;;;;;18.33;16.30;;;22.30;63.50;24.10;101528.00;;;;5111949;28;20705;-86
2023/09/09 06:38:58;;;;;;;20.65;17.73;;;22.30;63.60;24.10;101528.00;;;;5111695;28;20221;-85
2023/09/09 06:41:25;;;;;;;22.58;18.55;;;22.30;63.60;24.10;101518.00;;;;5108970;28;20752;-83
2023/09/09 06:43:52;;;;;;;20.45;17.98;;;22.30;63.50;24.10;101515.00;;;;5111272;28;20201;-83
2023/09/09 06:46:19;;;;;;;21.55;18.48;;;22.30;63.50;24.10;101528.00;;;;5109141;28;20283;-83
2023/09/09 06:48:47;;;;;;;19.95;17.45;;;22.30;63.50;24.10;101528.00;;;;5094811;28;20221;-85
2023/09/09 06:51:16;;;;;;;22.20;18.80;;;22.40;63.60;24.10;101532.00;;;;5109351;28;20201;-88
2023/09/09 06:53:43;;;;;;;26.95;19.52;;;22.40;64.40;24.10;101530.00;;;;5112430;28;20193;-86
2023/09/09 06:56:11;;;;;;;20.38;17.55;;;22.40;63.70;24.20;101532.00;;;;5110801;28;20208;-86
2023/09/09 06:58:38;;;;;;;23.05;19.17;;;22.40;63.70;24.20;101530.00;;;;5111384;28;20602;-87
2023/09/09 07:01:06;;;;;;;21.92;18.42;;;22.40;63.80;24.20;101532.00;;;;5113466;28;20200;-86
2023/09/09 07:03:33;;;;;;;19.45;17.27;;;22.50;64.00;24.30;101533.00;;;;5095037;28;20195;-87
2023/09/09 07:06:05;;;;;;;20.75;17.48;;;22.50;64.00;24.20;101528.00;;;;5104569;28;20573;-87
2023/09/09 07:08:40;;;;;;;22.15;19.50;;;22.50;64.30;24.30;101539.00;;;;5120605;28;20221;-88
2023/09/09 07:11:13;;;;;;;22.42;18.80;;;22.50;64.40;24.30;101532.00;;;;5096172;28;20204;-88
2023/09/09 07:13:44;;;;;;;22.67;18.63;;;22.60;64.40;24.40;101534.00;;;;5110554;28;20183;-91
2023/09/09 07:16:12;;;;;;;20.45;18.30;;;22.60;64.30;24.40;101539.00;;;;5104680;28;20217;-89
2023/09/09 07:18:45;;;;;;;21.25;18.02;;;22.70;64.40;24.50;101541.00;;;;5098824;28;20221;-90
2023/09/09 07:21:14;;;;;;;21.05;18.63;;;22.70;64.50;24.60;101542.00;;;;5105573;28;20644;-88
2023/09/09 07:23:41;;;;;;;20.98;18.35;;;22.80;64.40;24.60;101545.00;;;;5110366;28;20204;-87
2023/09/09 07:26:08;;;;;;;20.55;17.08;;;22.80;64.40;24.70;101551.00;;;;5109692;28;20550;-90
2023/09/09 07:28:35;;;;;;;28.35;17.80;;;22.90;64.30;24.70;101560.00;;;;5111945;28;20216;-86
2023/09/09 07:31:03;;;;;;;20.90;18.58;;;22.90;64.30;24.70;101551.00;;;;5114049;27;20209;-86
2023/09/09 07:33:30;;;;;;;21.42;19.13;;;23.00;64.20;24.80;101555.00;;;;5110447;28;20651;-85
2023/09/09 07:35:58;;;;;;;20.13;17.77;;;23.00;64.20;24.80;101554.00;;;;5110409;28;20197;-86
2023/09/09 07:38:27;;;;;;;21.60;19.23;;;23.00;64.30;24.80;101556.00;;;;5098107;28;20599;-87
2023/09/09 07:40:57;;;;;;;24.80;19.85;;;23.10;64.30;24.80;101551.00;;;;5091149;28;20198;-86
2023/09/09 07:43:27;;;;;;;27.38;21.65;;;23.10;64.40;24.90;101552.00;;;;5090735;28;20198;-86
2023/09/09 07:45:55;;;;;;;22.58;18.95;;;23.10;64.30;25.00;101550.00;;;;5088939;28;20224;-86
2023/09/09 07:48:23;;;;;;;23.67;20.23;;;23.20;64.40;25.00;101552.00;;;;5105132;28;20238;-86
2023/09/09 07:50:54;;;;;;;23.00;20.48;;;23.20;64.50;25.10;101558.00;;;;5106668;28;20195;-85
2023/09/09 07:53:22;;;;;;;24.50;21.17;;;23.30;64.70;25.20;101559.00;;;;5096096;28;20198;-87
2023/09/09 07:55:51;;;;;;;25.80;21.48;;;23.30;64.70;25.20;101563.00;;;;5099551;28;20243;-86
2023/09/09 07:58:19;;;;;;;26.90;21.20;;;23.40;64.90;25.30;101564.00;;;;5110882;28;20218;-87
2023/09/09 08:00:47;;;;;;;26.73;21.08;;;23.40;64.80;25.40;101569.00;;;;5109633;28;20229;-86
2023/09/09 08:03:15;;;;;;;20.90;18.10;;;23.50;65.00;25.50;101567.00;;;;5109227;28;20205;-87
2023/09/09 08:05:43;;;;;;;21.08;18.90;;;23.60;65.10;25.60;101574.00;;;;5108666;28;20583;-87
2023/09/09 08:08:10;;;;;;;27.00;21.73;;;23.70;65.20;25.70;101569.00;;;;5109632;28;20255;-87
2023/09/09 08:10:37;;;;;;;24.05;20.55;;;23.80;65.20;25.70;101574.00;;;;5098848;28;20308;-85
2023/09/09 08:13:05;;;;;;;27.48;21.48;;;23.90;65.30;25.80;101565.00;;;;5089820;28;20293;-85
2023/09/09 08:15:32;;;;;;;25.27;20.67;;;24.00;65.40;25.90;101576.00;;;;5104775;28;20232;-84
2023/09/09 08:17:59;;;;;;;26.05;20.98;;;24.10;65.30;26.00;101576.00;;;;5108792;28;20919;-85
2023/09/09 08:20:26;;;;;;;27.40;20.85;;;24.20;65.20;26.10;101578.00;;;;5109440;28;20572;-87
2023/09/09 08:22:53;;;;;;;26.35;22.25;;;24.30;65.10;26.10;101580.00;;;;5108900;28;20197;-86
2023/09/09 08:25:21;;;;;;;26.70;21.83;;;24.40;65.00;26.20;101578.00;;;;5095115;28;20578;-86
2023/09/09 08:27:48;;;;;;;28.38;23.15;;;24.40;64.90;26.30;101580.00;;;;5105948;28;20202;-86
2023/09/09 08:30:17;;;;;;;31.00;22.23;;;24.50;64.90;26.30;101588.00;;;;5090080;28;20214;-85
2023/09/09 08:32:44;;;;;;;25.98;22.08;;;24.60;64.90;26.40;101588.00;;;;5092558;28;20646;-86
2023/09/09 08:35:11;;;;;;;28.42;23.48;;;24.60;64.90;26.50;101586.00;;;;5109841;28;20194;-86
2023/09/09 08:37:38;;;;;;;26.25;22.30;;;24.70;64.90;26.60;101594.00;;;;5105381;28;20194;-87
2023/09/09 08:40:08;;;;;;;24.42;21.08;;;24.80;65.00;26.60;101595.00;;;;5093425;28;20222;-88
2023/09/09 08:42:51;;;;;;;25.30;22.15;;;24.90;65.00;26.70;101598.00;;;;5089615;28;20713;-86
2023/09/09 08:45:34;;;;;;;29.02;24.05;;;25.00;65.10;26.80;101587.00;;;;5090026;28;20202;-87
2023/09/09 08:48:07;;;;;;;27.05;22.95;;;25.10;65.00;26.90;101598.00;;;;5098866;28;20358;-85
2023/09/09 08:50:38;;;;;;;28.70;23.42;;;25.20;65.10;27.00;101592.00;;;;5108933;28;20197;-86
2023/09/09 08:53:07;;;;;;;26.90;22.30;;;25.30;65.80;27.10;101602.00;;;;5108254;28;20698;-87
2023/09/09 08:55:37;;;;;;;26.38;22.17;;;25.40;65.10;27.30;101600.00;;;;5089508;28;20552;-86
2023/09/09 08:58:05;;;;;;;26.35;21.15;;;25.50;65.10;27.40;101602.00;;;;5106873;28;20201;-85
2023/09/09 09:00:37;;;;;;;27.67;21.85;;;25.70;65.20;27.40;101596.00;;;;5109560;28;20229;-86
2023/09/09 09:03:05;;;;;;;24.67;20.55;;;25.80;65.20;27.60;101609.00;;;;5105970;28;20988;-85
2023/09/09 09:05:36;;;;;;;28.20;21.92;;;25.90;65.10;27.70;101614.00;;;;5099603;28;20670;-83
2023/09/09 09:08:04;;;;;;;23.88;19.52;;;26.00;65.10;27.90;101605.00;;;;5105613;28;20218;-85
2023/09/09 09:10:31;;;;;;;21.52;17.45;;;26.10;65.00;28.00;101590.00;;;;5089245;28;20205;-86
2023/09/09 09:12:59;;;;;;;24.85;20.98;;;26.30;65.10;28.20;101607.00;;;;5105869;28;20193;-85
2023/09/09 09:15:28;;;;;;;25.15;19.95;;;26.40;65.10;28.30;101602.00;;;;5107079;28;20193;-85
2023/09/09 09:17:57;;;;;;;24.02;19.13;;;26.60;64.80;28.40;101602.00;;;;5108378;28;20229;-84
2023/09/09 09:20:28;;;;;;;23.55;17.75;;;26.70;64.70;28.50;101608.00;;;;5105108;28;20225;-83
2023/09/09 09:23:00;;;;;;;21.35;17.98;;;26.80;64.40;28.70;101598.00;;;;5104541;28;20201;-85
2023/09/09 09:25:27;;;;;;;20.33;17.77;;;27.00;64.40;28.80;101598.00;;;;5098074;28;20696;-83
2023/09/09 09:27:57;;;;;;;22.55;17.70;;;27.10;64.30;29.00;101598.00;;;;5101436;28;20687;-84
2023/09/09 09:30:28;;;;;;;22.33;17.13;;;27.30;64.20;29.10;101612.00;;;;5108826;28;20190;-84
2023/09/09 09:32:57;;;;;;;20.23;15.75;;;27.40;64.00;29.20;101603.00;;;;5099720;28;20281;-83
2023/09/09 09:35:25;;;;;;;18.20;15.10;;;27.60;63.90;29.40;101605.00;;;;5105501;28;20213;-85
2023/09/09 09:37:56;;;;;;;19.17;16.23;;;27.70;63.60;29.50;101598.00;;;;5097152;28;20277;-85
2023/09/09 09:40:23;;;;;;;20.75;16.25;;;27.80;63.40;29.70;101607.00;;;;5098094;28;20974;-86
2023/09/09 09:42:51;;;;;;;19.70;16.48;;;28.00;63.20;29.80;101614.00;;;;5089481;28;20201;-85
2023/09/09 09:45:18;;;;;;;18.35;14.90;;;28.20;63.10;30.00;101618.00;;;;5107716;28;20194;-86
2023/09/09 09:47:47;;;;;;;19.23;15.38;;;28.30;63.00;30.10;101618.00;;;;5108247;28;20209;-85
2023/09/09 09:50:22;;;;;;;17.13;14.68;;;28.40;62.80;30.20;101615.00;;;;5108649;28;20258;-86
2023/09/09 09:52:57;;;;;;;18.67;16.02;;;28.60;62.60;30.30;101618.00;;;;5112623;28;20305;-85
2023/09/09 09:55:25;;;;;;;18.80;14.45;;;28.70;62.40;30.50;101622.00;;;;5108932;28;20212;-85
2023/09/09 09:57:57;;;;;;;17.48;14.90;;;28.90;62.10;30.50;101617.00;;;;5101659;28;20991;-86
2023/09/09 10:00:25;;;;;;;16.58;14.48;;;29.00;61.70;30.70;101613.00;;;;5088708;28;20233;-85
2023/09/09 10:02:54;;;;;;;16.40;14.55;;;29.10;61.50;30.80;101621.00;;;;5105947;28;20198;-83
2023/09/09 10:05:28;;;;;;;16.65;12.90;;;29.30;61.40;30.90;101618.00;;;;5107937;28;20567;-85
2023/09/09 10:08:12;;;;;;;13.80;12.25;;;29.40;60.90;31.00;101623.00;;;;5108063;28;20243;-85
2023/09/09 10:10:46;;;;;;;12.38;10.88;;;29.50;61.00;31.10;101621.00;;;;5104697;28;20629;-86
2023/09/09 10:13:24;;;;;;;13.32;11.30;;;29.60;60.80;31.30;101621.00;;;;5104966;28;20663;-84
2023/09/09 10:15:51;;;;;;;12.00;10.60;;;29.70;60.30;31.40;101615.00;;;;5098140;28;20651;-84
2023/09/09 10:18:23;;;;;;;13.65;11.32;;;29.90;60.20;31.50;101615.00;;;;5107723;28;20201;-85
2023/09/09 10:20:54;;;;;;;13.20;10.70;;;30.00;59.90;31.60;101621.00;;;;5106204;28;20605;-84
2023/09/09 10:23:23;;;;;;;12.60;10.88;;;30.10;59.50;31.70;101620.00;;;;5089012;28;20186;-85
2023/09/09 10:25:52;;;;;;;10.85;9.73;;;30.20;59.40;31.80;101609.00;;;;5092127;28;20202;-85
2023/09/09 10:28:21;;;;;;;13.90;11.40;;;30.40;59.30;32.00;101616.00;;;;5105780;28;20237;-84
2023/09/09 10:30:50;;;;;;;12.60;11.25;;;30.40;59.10;32.10;101606.00;;;;5094743;28;20730;-84
2023/09/09 10:33:21;;;;;;;10.50;9.48;;;30.60;59.00;32.20;101614.00;;;;5108892;28;20201;-85
2023/09/09 10:35:51;;;;;;;11.57;10.30;;;30.70;58.80;32.30;101616.00;;;;5092245;28;20996;-84
2023/09/09 10:38:22;;;;;;;12.73;11.43;;;30.80;58.80;32.40;101608.00;;;;5107288;28;20197;-84
2023/09/09 10:40:50;;;;;;;13.30;11.23;;;30.90;58.60;32.50;101608.00;;;;5110724;28;20220;-84
2023/09/09 10:43:17;;;;;;;10.77;9.75;;;31.00;58.30;32.60;101604.00;;;;5110278;28;20212;-84
2023/09/09 10:45:45;;;;;;;11.43;10.23;;;31.10;58.20;32.70;101603.00;;;;5100887;28;20200;-84